PWSweather.com
Personal Weather Stations
Station Observations
KWAYELM6
Clearwood, Yelm, Yelm, WA 98597

Clearwood, YelmYelm, WA 98597

Lat: 46.82, Lon: -122.48

Elevation: 560

Station Type: Davis Vantage Vue

Latest ConditionsUpdated 10:00:00 PM PDT Friday, Jun 24, 2016
Currently Today's Max Today's Min Today's Average
Temperature 56.5°F13.6°C 65.8°F18.8°C 48.9°F9.4°C 56.6°F13.7°C
Dew Point 51.4°F10.8°C 57.0°F13.9°C 47.8°F8.8°C 51.4°F10.8°C
Winds Calm Calm 1.0 mph NNW1.6 kmh NNW - 0.2 mph 0.3 kmh
Wind Gusts 1.0 mph1.6 kmh 5.0 mph8.0 kmh - -
Humidity 83% 97% 68% 83%
Pressure 30.29 in1025.7 mb 30.29 in1025.7 mb 30.10 in1019.3 mb -
Precipitation - 0.08 in2.0 mm - -
Hour Temp Dew Point Humidity Winds Wind Gusts Pressure Precip Precip Rate Daily Precip Total
10:00 PM 56.5°F13.6°C 51.4°F10.8°C 83% Calm Calm 1.0 mph1.6 kmh 30.29 in1025.7 mb 0.00 in0.0 mm 0.00 in0.0 mm 0.08 in2.0 mm
09:45 PM 56.9°F13.8°C 51.5°F10.8°C 82% Calm Calm 2.0 mph3.2 kmh 30.28 in1025.4 mb 0.00 in0.0 mm 0.00 in0.0 mm 0.08 in2.0 mm
09:30 PM 57.2°F14.0°C 51.4°F10.8°C 81% Calm Calm 1.0 mph1.6 kmh 30.28 in1025.4 mb 0.00 in0.0 mm 0.00 in0.0 mm 0.08 in2.0 mm
09:15 PM 57.7°F14.3°C 51.6°F10.9°C 80% Calm Calm 1.0 mph1.6 kmh 30.28 in1025.4 mb 0.00 in0.0 mm 0.00 in0.0 mm 0.08 in2.0 mm
09:00 PM 58.3°F14.6°C 51.8°F11.0°C 79% Calm Calm 2.0 mph3.2 kmh 30.27 in1025.1 mb 0.00 in0.0 mm 0.00 in0.0 mm 0.08 in2.0 mm
08:45 PM 58.7°F14.8°C 51.5°F10.8°C 77% 1.0 mph WNW1.6 kmh WNW 2.0 mph3.2 kmh 30.27 in1025.1 mb 0.00 in0.0 mm 0.00 in0.0 mm 0.08 in2.0 mm
08:30 PM 59.6°F15.3°C 51.3°F10.7°C 74% 1.0 mph WNW1.6 kmh WNW 3.0 mph4.8 kmh 30.27 in1025.1 mb 0.00 in0.0 mm 0.00 in0.0 mm 0.08 in2.0 mm
08:15 PM 60.4°F15.8°C 52.1°F11.2°C 74% 1.0 mph W1.6 kmh W 3.0 mph4.8 kmh 30.27 in1025.1 mb 0.00 in0.0 mm 0.00 in0.0 mm 0.08 in2.0 mm
08:00 PM 60.7°F15.9°C 52.0°F11.1°C 73% Calm Calm 3.0 mph4.8 kmh 30.26 in1024.7 mb 0.00 in0.0 mm 0.00 in0.0 mm 0.08 in2.0 mm
07:45 PM 61.5°F16.4°C 53.1°F11.7°C 74% Calm Calm 2.0 mph3.2 kmh 30.26 in1024.7 mb 0.00 in0.0 mm 0.00 in0.0 mm 0.08 in2.0 mm
07:30 PM 62.3°F16.8°C 52.8°F11.6°C 71% 1.0 mph W1.6 kmh W 2.0 mph3.2 kmh 30.26 in1024.7 mb 0.00 in0.0 mm 0.00 in0.0 mm 0.08 in2.0 mm
07:15 PM 62.5°F16.9°C 53.3°F11.8°C 72% Calm Calm 1.0 mph1.6 kmh 30.26 in1024.7 mb 0.00 in0.0 mm 0.00 in0.0 mm 0.08 in2.0 mm
07:00 PM 62.2°F16.8°C 53.1°F11.7°C 72% 1.0 mph W1.6 kmh W 3.0 mph4.8 kmh 30.25 in1024.4 mb 0.00 in0.0 mm 0.00 in0.0 mm 0.08 in2.0 mm
06:45 PM 62.1°F16.7°C 53.3°F11.8°C 73% Calm Calm 4.0 mph6.4 kmh 30.25 in1024.4 mb 0.00 in0.0 mm 0.00 in0.0 mm 0.08 in2.0 mm
06:30 PM 62.8°F17.1°C 52.9°F11.6°C 70% 1.0 mph WNW1.6 kmh WNW 3.0 mph4.8 kmh 30.25 in1024.4 mb 0.00 in0.0 mm 0.00 in0.0 mm 0.08 in2.0 mm
06:15 PM 64.0°F17.8°C 53.2°F11.8°C 68% 1.0 mph W1.6 kmh W 3.0 mph4.8 kmh 30.25 in1024.4 mb 0.00 in0.0 mm 0.00 in0.0 mm 0.08 in2.0 mm
06:00 PM 63.6°F17.6°C 54.0°F12.2°C 71% 1.0 mph WNW1.6 kmh WNW 4.0 mph6.4 kmh 30.25 in1024.4 mb 0.00 in0.0 mm 0.00 in0.0 mm 0.08 in2.0 mm
05:45 PM 65.0°F18.3°C 54.6°F12.6°C 69% 1.0 mph NW1.6 kmh NW 3.0 mph4.8 kmh 30.25 in1024.4 mb 0.00 in0.0 mm 0.00 in0.0 mm 0.08 in2.0 mm
05:30 PM 65.6°F18.7°C 54.8°F12.7°C 68% 1.0 mph WSW1.6 kmh WSW 4.0 mph6.4 kmh 30.25 in1024.4 mb 0.00 in0.0 mm 0.00 in0.0 mm 0.08 in2.0 mm
05:15 PM 65.8°F18.8°C 55.3°F12.9°C 69% 1.0 mph W1.6 kmh W 4.0 mph6.4 kmh 30.25 in1024.4 mb 0.00 in0.0 mm 0.00 in0.0 mm 0.08 in2.0 mm
05:00 PM 64.0°F17.8°C 54.8°F12.7°C 72% 1.0 mph W1.6 kmh W 3.0 mph4.8 kmh 30.24 in1024.0 mb 0.00 in0.0 mm 0.00 in0.0 mm 0.08 in2.0 mm
04:45 PM 64.6°F18.1°C 55.4°F13.0°C 72% 1.0 mph SW1.6 kmh SW 4.0 mph6.4 kmh 30.24 in1024.0 mb 0.00 in0.0 mm 0.00 in0.0 mm 0.08 in2.0 mm
04:30 PM 63.9°F17.7°C 55.8°F13.2°C 75% 1.0 mph WSW1.6 kmh WSW 3.0 mph4.8 kmh 30.25 in1024.4 mb 0.01 in0.3 mm 0.00 in0.0 mm 0.08 in2.0 mm
04:15 PM 63.9°F17.7°C 56.2°F13.4°C 76% 1.0 mph W1.6 kmh W 2.0 mph3.2 kmh 30.25 in1024.4 mb 0.01 in0.3 mm 0.00 in0.0 mm 0.08 in2.0 mm
04:00 PM 61.9°F16.6°C 57.0°F13.9°C 84% 1.0 mph W1.6 kmh W 2.0 mph3.2 kmh 30.25 in1024.4 mb 0.01 in0.3 mm 0.00 in0.0 mm 0.08 in2.0 mm
03:45 PM 60.7°F15.9°C 56.5°F13.6°C 86% Calm Calm 2.0 mph3.2 kmh 30.26 in1024.7 mb 0.01 in0.3 mm 0.04 in1.0 mm 0.08 in2.0 mm
03:30 PM 63.3°F17.4°C 54.1°F12.3°C 72% 1.0 mph W1.6 kmh W 5.0 mph8.0 kmh 30.25 in1024.4 mb 0.00 in0.0 mm 0.00 in0.0 mm 0.07 in1.8 mm
03:15 PM 63.0°F17.2°C 55.7°F13.2°C 77% 1.0 mph WNW1.6 kmh WNW 2.0 mph3.2 kmh 30.25 in1024.4 mb 0.00 in0.0 mm 0.00 in0.0 mm 0.07 in1.8 mm
03:00 PM 63.2°F17.3°C 54.8°F12.7°C 74% Calm Calm 2.0 mph3.2 kmh 30.25 in1024.4 mb 0.01 in0.3 mm 0.00 in0.0 mm 0.07 in1.8 mm
02:45 PM 61.8°F16.6°C 54.9°F12.7°C 78% Calm Calm 2.0 mph3.2 kmh 30.25 in1024.4 mb 0.01 in0.3 mm 0.00 in0.0 mm 0.07 in1.8 mm
02:30 PM 61.6°F16.4°C 54.0°F12.2°C 76% Calm Calm 2.0 mph3.2 kmh 30.25 in1024.4 mb 0.01 in0.3 mm 0.00 in0.0 mm 0.07 in1.8 mm
02:15 PM 60.9°F16.1°C 55.4°F13.0°C 82% Calm Calm 1.0 mph1.6 kmh 30.25 in1024.4 mb 0.01 in0.3 mm 0.04 in1.0 mm 0.07 in1.8 mm
02:00 PM 59.9°F15.5°C 55.4°F13.0°C 85% Calm Calm 2.0 mph3.2 kmh 30.25 in1024.4 mb 0.00 in0.0 mm 0.00 in0.0 mm 0.06 in1.5 mm
01:45 PM 60.7°F15.9°C 53.8°F12.1°C 78% Calm Calm 2.0 mph3.2 kmh 30.24 in1024.0 mb 0.00 in0.0 mm 0.00 in0.0 mm 0.06 in1.5 mm
01:30 PM 60.1°F15.6°C 55.6°F13.1°C 85% Calm Calm 1.0 mph1.6 kmh 30.24 in1024.0 mb 0.00 in0.0 mm 0.00 in0.0 mm 0.06 in1.5 mm
01:15 PM 59.0°F15.0°C 53.8°F12.1°C 83% Calm Calm 1.0 mph1.6 kmh 30.24 in1024.0 mb 0.00 in0.0 mm 0.00 in0.0 mm 0.06 in1.5 mm
01:00 PM 59.8°F15.4°C 52.9°F11.6°C 78% Calm Calm 2.0 mph3.2 kmh 30.23 in1023.7 mb 0.00 in0.0 mm 0.00 in0.0 mm 0.06 in1.5 mm
12:45 PM 60.0°F15.6°C 52.8°F11.6°C 77% Calm Calm 2.0 mph3.2 kmh 30.23 in1023.7 mb 0.00 in0.0 mm 0.00 in0.0 mm 0.06 in1.5 mm
12:30 PM 59.7°F15.4°C 51.4°F10.8°C 74% Calm Calm 2.0 mph3.2 kmh 30.23 in1023.7 mb 0.00 in0.0 mm 0.00 in0.0 mm 0.06 in1.5 mm
12:15 PM 59.5°F15.3°C 51.9°F11.1°C 76% Calm Calm 2.0 mph3.2 kmh 30.23 in1023.7 mb 0.00 in0.0 mm 0.00 in0.0 mm 0.06 in1.5 mm
12:00 PM 59.2°F15.1°C 52.0°F11.1°C 77% Calm Calm 4.0 mph6.4 kmh 30.22 in1023.4 mb 0.00 in0.0 mm 0.00 in0.0 mm 0.06 in1.5 mm
11:45 AM 58.5°F14.7°C 51.3°F10.7°C 77% Calm Calm 2.0 mph3.2 kmh 30.22 in1023.4 mb 0.00 in0.0 mm 0.00 in0.0 mm 0.06 in1.5 mm
11:30 AM 58.4°F14.7°C 50.9°F10.5°C 76% 1.0 mph NW1.6 kmh NW 3.0 mph4.8 kmh 30.22 in1023.4 mb 0.00 in0.0 mm 0.00 in0.0 mm 0.06 in1.5 mm
11:15 AM 58.2°F14.6°C 51.7°F10.9°C 79% Calm Calm 3.0 mph4.8 kmh 30.22 in1023.4 mb 0.00 in0.0 mm 0.00 in0.0 mm 0.06 in1.5 mm
11:00 AM 57.6°F14.2°C 51.5°F10.8°C 80% 1.0 mph SSW1.6 kmh SSW 3.0 mph4.8 kmh 30.21 in1023.0 mb 0.00 in0.0 mm 0.00 in0.0 mm 0.06 in1.5 mm
10:45 AM 57.2°F14.0°C 51.4°F10.8°C 81% Calm Calm 5.0 mph8.0 kmh 30.21 in1023.0 mb 0.00 in0.0 mm 0.00 in0.0 mm 0.06 in1.5 mm
10:30 AM 56.7°F13.7°C 50.6°F10.3°C 80% Calm Calm 3.0 mph4.8 kmh 30.20 in1022.7 mb 0.00 in0.0 mm 0.00 in0.0 mm 0.06 in1.5 mm
10:15 AM 55.6°F13.1°C 50.5°F10.3°C 83% Calm Calm 3.0 mph4.8 kmh 30.20 in1022.7 mb 0.00 in0.0 mm 0.00 in0.0 mm 0.06 in1.5 mm
10:00 AM 55.3°F12.9°C 50.2°F10.1°C 83% 1.0 mph NNW1.6 kmh NNW 3.0 mph4.8 kmh 30.20 in1022.7 mb 0.00 in0.0 mm 0.00 in0.0 mm 0.06 in1.5 mm
09:45 AM 54.6°F12.6°C 49.9°F9.9°C 84% Calm Calm 3.0 mph4.8 kmh 30.20 in1022.7 mb 0.00 in0.0 mm 0.00 in0.0 mm 0.06 in1.5 mm
09:30 AM 54.0°F12.2°C 50.2°F10.1°C 87% Calm Calm 2.0 mph3.2 kmh 30.19 in1022.4 mb 0.00 in0.0 mm 0.00 in0.0 mm 0.06 in1.5 mm
09:15 AM 53.4°F11.9°C 49.9°F9.9°C 88% Calm Calm -- 30.19 in1022.4 mb 0.00 in0.0 mm 0.00 in0.0 mm 0.06 in1.5 mm
09:00 AM 53.1°F11.7°C 50.2°F10.1°C 90% Calm Calm 1.0 mph1.6 kmh 30.19 in1022.4 mb 0.00 in0.0 mm 0.00 in0.0 mm 0.06 in1.5 mm
08:45 AM 52.8°F11.6°C 50.2°F10.1°C 91% Calm Calm 1.0 mph1.6 kmh 30.18 in1022.0 mb 0.00 in0.0 mm 0.00 in0.0 mm 0.06 in1.5 mm
08:30 AM 52.4°F11.3°C 50.7°F10.4°C 94% Calm Calm 1.0 mph1.6 kmh 30.18 in1022.0 mb 0.01 in0.3 mm 0.00 in0.0 mm 0.06 in1.5 mm
08:15 AM 52.2°F11.2°C 50.5°F10.3°C 94% Calm Calm 1.0 mph1.6 kmh 30.18 in1022.0 mb 0.01 in0.3 mm 0.00 in0.0 mm 0.06 in1.5 mm
08:00 AM 52.1°F11.2°C 50.1°F10.1°C 93% Calm Calm 1.0 mph1.6 kmh 30.18 in1022.0 mb 0.01 in0.3 mm 0.00 in0.0 mm 0.06 in1.5 mm
07:45 AM 51.8°F11.0°C 50.4°F10.2°C 95% Calm Calm -- 30.18 in1022.0 mb 0.01 in0.3 mm 0.04 in1.0 mm 0.06 in1.5 mm
07:30 AM 51.4°F10.8°C 50.3°F10.2°C 96% Calm Calm 1.0 mph1.6 kmh 30.18 in1022.0 mb 0.00 in0.0 mm 0.00 in0.0 mm 0.05 in1.3 mm
07:15 AM 50.9°F10.5°C 49.8°F9.9°C 96% Calm Calm -- 30.17 in1021.7 mb 0.00 in0.0 mm 0.00 in0.0 mm 0.05 in1.3 mm
07:00 AM 50.6°F10.3°C 49.8°F9.9°C 97% Calm Calm -- 30.17 in1021.7 mb 0.00 in0.0 mm 0.00 in0.0 mm 0.05 in1.3 mm
06:45 AM 50.2°F10.1°C 49.4°F9.7°C 97% Calm Calm 1.0 mph1.6 kmh 30.17 in1021.7 mb 0.00 in0.0 mm 0.00 in0.0 mm 0.05 in1.3 mm
06:30 AM 49.9°F9.9°C 49.1°F9.5°C 97% Calm Calm -- 30.16 in1021.3 mb 0.00 in0.0 mm 0.00 in0.0 mm 0.05 in1.3 mm
06:15 AM 49.4°F9.7°C 48.6°F9.2°C 97% Calm Calm -- 30.16 in1021.3 mb 0.00 in0.0 mm 0.00 in0.0 mm 0.05 in1.3 mm
06:00 AM 49.0°F9.4°C 47.9°F8.8°C 96% Calm Calm 2.0 mph3.2 kmh 30.15 in1021.0 mb 0.00 in0.0 mm 0.00 in0.0 mm 0.05 in1.3 mm
05:45 AM 48.9°F9.4°C 47.8°F8.8°C 96% Calm Calm 1.0 mph1.6 kmh 30.15 in1021.0 mb 0.00 in0.0 mm 0.00 in0.0 mm 0.05 in1.3 mm
05:30 AM 49.2°F9.6°C 48.1°F8.9°C 96% Calm Calm 1.0 mph1.6 kmh 30.15 in1021.0 mb 0.00 in0.0 mm 0.00 in0.0 mm 0.05 in1.3 mm
05:15 AM 49.3°F9.6°C 48.2°F9.0°C 96% Calm Calm -- 30.14 in1020.7 mb 0.00 in0.0 mm 0.00 in0.0 mm 0.05 in1.3 mm
05:00 AM 49.6°F9.8°C 48.5°F9.2°C 96% Calm Calm -- 30.15 in1021.0 mb 0.00 in0.0 mm 0.00 in0.0 mm 0.05 in1.3 mm
04:45 AM 49.9°F9.9°C 48.5°F9.2°C 95% Calm Calm -- 30.14 in1020.7 mb 0.00 in0.0 mm 0.00 in0.0 mm 0.05 in1.3 mm
04:30 AM 50.3°F10.2°C 48.9°F9.4°C 95% Calm Calm -- 30.14 in1020.7 mb 0.00 in0.0 mm 0.00 in0.0 mm 0.05 in1.3 mm
04:15 AM 50.5°F10.3°C 49.1°F9.5°C 95% Calm Calm 1.0 mph1.6 kmh 30.13 in1020.3 mb 0.01 in0.3 mm 0.00 in0.0 mm 0.05 in1.3 mm
04:00 AM 50.7°F10.4°C 49.3°F9.6°C 95% Calm Calm -- 30.13 in1020.3 mb 0.02 in0.5 mm 0.00 in0.0 mm 0.05 in1.3 mm
03:45 AM 50.9°F10.5°C 49.2°F9.6°C 94% Calm Calm 1.0 mph1.6 kmh 30.13 in1020.3 mb 0.05 in1.3 mm 0.00 in0.0 mm 0.05 in1.3 mm
03:30 AM 51.2°F10.7°C 49.2°F9.6°C 93% Calm Calm -- 30.12 in1020.0 mb 0.05 in1.3 mm 0.04 in1.0 mm 0.05 in1.3 mm
03:15 AM 51.8°F11.0°C 49.5°F9.7°C 92% Calm Calm -- 30.12 in1020.0 mb 0.04 in1.0 mm 0.04 in1.0 mm 0.04 in1.0 mm
03:00 AM 52.7°F11.5°C 49.2°F9.6°C 88% Calm Calm 1.0 mph1.6 kmh 30.12 in1020.0 mb 0.03 in0.8 mm 0.04 in1.0 mm 0.03 in0.8 mm
02:45 AM 53.0°F11.7°C 48.0°F8.9°C 83% Calm Calm 1.0 mph1.6 kmh 30.12 in1020.0 mb 0.00 in0.0 mm 0.00 in0.0 mm 0.00 in0.0 mm
02:30 AM 52.7°F11.5°C 48.3°F9.1°C 85% Calm Calm 2.0 mph3.2 kmh 30.11 in1019.6 mb 0.00 in0.0 mm 0.00 in0.0 mm 0.00 in0.0 mm
02:15 AM 52.3°F11.3°C 48.2°F9.0°C 86% Calm Calm 1.0 mph1.6 kmh 30.11 in1019.6 mb 0.00 in0.0 mm 0.00 in0.0 mm 0.00 in0.0 mm
02:00 AM 52.6°F11.4°C 48.5°F9.2°C 86% Calm Calm 1.0 mph1.6 kmh 30.11 in1019.6 mb 0.00 in0.0 mm 0.00 in0.0 mm 0.00 in0.0 mm
01:45 AM 52.9°F11.6°C 48.2°F9.0°C 84% Calm Calm 2.0 mph3.2 kmh 30.11 in1019.6 mb 0.00 in0.0 mm 0.00 in0.0 mm 0.00 in0.0 mm
01:30 AM 52.9°F11.6°C 48.8°F9.3°C 86% Calm Calm 1.0 mph1.6 kmh 30.11 in1019.6 mb 0.00 in0.0 mm 0.00 in0.0 mm 0.00 in0.0 mm
01:15 AM 53.1°F11.7°C 49.3°F9.6°C 87% Calm Calm -- 30.11 in1019.6 mb 0.00 in0.0 mm 0.00 in0.0 mm 0.00 in0.0 mm
01:00 AM 53.2°F11.8°C 48.8°F9.3°C 85% Calm Calm 1.0 mph1.6 kmh 30.10 in1019.3 mb 0.00 in0.0 mm 0.00 in0.0 mm 0.00 in0.0 mm
12:45 AM 53.0°F11.7°C 48.9°F9.4°C 86% Calm Calm 1.0 mph1.6 kmh 30.11 in1019.6 mb 0.00 in0.0 mm 0.00 in0.0 mm 0.00 in0.0 mm
12:30 AM 53.1°F11.7°C 49.6°F9.8°C 88% Calm Calm 1.0 mph1.6 kmh 30.11 in1019.6 mb 0.00 in0.0 mm 0.00 in0.0 mm 0.00 in0.0 mm
12:15 AM 53.2°F11.8°C 49.4°F9.7°C 87% Calm Calm 1.0 mph1.6 kmh 30.11 in1019.6 mb 0.00 in0.0 mm 0.00 in0.0 mm 0.00 in0.0 mm
12:00 AM 53.2°F11.8°C 49.4°F9.7°C 87% Calm Calm 1.0 mph1.6 kmh 30.11 in1019.6 mb 0.00 in0.0 mm 0.00 in0.0 mm 0.00 in0.0 mm